Time;durP1;ratioP1;P1;durP2;ratioP2;P2;SDS_P1;SDS_P2;PMS_P1;PMS_P2;Temp;Humidity;BMP_temperature;BMP_pressure;BME280_temperature;BME280_humidity;BME280_pressure;Samples;Min_cycle;Max_cycle;Signal;HPM_P1;HPM_P2
2022/03/31 00:00:07;;;;;;;0.60;0.60;;;4.30;99.90;;;;;;4978044;28;20137;-52
2022/03/31 00:02:34;;;;;;;1.02;0.57;;;4.30;99.90;;;;;;4978148;28;20134;-53
2022/03/31 00:05:01;;;;;;;0.65;0.50;;;4.20;99.90;;;;;;4971986;28;20050;-54
2022/03/31 00:07:28;;;;;;;0.85;0.60;;;4.30;99.90;;;;;;4978623;28;20532;-58
2022/03/31 00:09:54;;;;;;;0.50;0.50;;;4.30;99.90;;;;;;4974681;28;20208;-55
2022/03/31 00:12:21;;;;;;;0.57;0.50;;;4.40;99.90;;;;;;4978015;28;20125;-56
2022/03/31 00:14:48;;;;;;;0.80;0.80;;;4.40;99.90;;;;;;4973380;28;20138;-56
2022/03/31 00:17:15;;;;;;;3.10;0.50;;;4.30;99.90;;;;;;4977931;28;20062;-56
2022/03/31 00:19:41;;;;;;;1.08;0.75;;;4.20;99.90;;;;;;4974349;28;20043;-56
2022/03/31 00:22:08;;;;;;;2.85;0.80;;;4.20;99.90;;;;;;4977026;28;20046;-54
2022/03/31 00:24:35;;;;;;;1.25;0.90;;;4.40;99.90;;;;;;4975748;28;20117;-55
2022/03/31 00:27:02;;;;;;;1.08;0.77;;;4.30;99.90;;;;;;4976305;28;20083;-54
2022/03/31 00:29:29;;;;;;;1.27;0.80;;;4.30;99.90;;;;;;4978522;28;20466;-56
2022/03/31 00:31:55;;;;;;;0.50;0.50;;;4.30;99.90;;;;;;4975429;28;20078;-56
2022/03/31 00:34:22;;;;;;;1.52;0.73;;;4.30;99.90;;;;;;4963177;28;20120;-52
2022/03/31 00:36:49;;;;;;;0.50;0.45;;;4.20;99.90;;;;;;4975371;28;20067;-49
2022/03/31 00:39:34;;;;;;;2.00;0.40;;;4.20;99.90;;;;;;4980763;28;20046;-52
2022/03/31 00:42:02;;;;;;;0.77;0.50;;;4.20;99.90;;;;;;4978332;28;20078;-56
2022/03/31 00:44:29;;;;;;;1.20;0.40;;;4.10;99.90;;;;;;4980614;28;20054;-54
2022/03/31 00:46:56;;;;;;;2.25;0.75;;;4.10;99.90;;;;;;4978898;28;20042;-56
2022/03/31 00:49:25;;;;;;;0.98;0.75;;;4.10;99.90;;;;;;4960513;28;20128;-56
2022/03/31 00:51:53;;;;;;;0.85;0.68;;;4.10;99.90;;;;;;4632583;28;9999965;-55
2022/03/31 00:54:22;;;;;;;0.70;0.50;;;4.20;99.90;;;;;;4977062;28;20085;-55
2022/03/31 00:56:49;;;;;;;4.20;0.50;;;4.20;99.90;;;;;;4976819;28;20055;-57
2022/03/31 00:59:17;;;;;;;1.05;0.60;;;4.20;99.90;;;;;;4978562;28;20077;-55
2022/03/31 01:01:45;;;;;;;1.27;0.73;;;4.20;99.90;;;;;;4980044;28;20687;-53
2022/03/31 01:04:13;;;;;;;0.75;0.57;;;4.20;99.90;;;;;;4979662;28;20050;-54
2022/03/31 01:06:45;;;;;;;1.52;0.60;;;4.10;99.90;;;;;;4973366;28;20078;-55
2022/03/31 01:09:12;;;;;;;2.63;0.70;;;4.10;99.90;;;;;;4976905;28;20129;-55
2022/03/31 01:11:39;;;;;;;1.70;0.65;;;4.10;99.90;;;;;;4976525;28;20085;-57
2022/03/31 01:14:07;;;;;;;1.75;0.70;;;4.10;99.90;;;;;;4976965;28;20137;-57
2022/03/31 01:16:34;;;;;;;1.92;0.68;;;4.10;99.90;;;;;;4982584;28;20043;-56
2022/03/31 01:19:05;;;;;;;0.68;0.68;;;4.10;99.90;;;;;;4980889;28;20477;-54
2022/03/31 01:21:42;;;;;;;0.60;0.60;;;4.00;99.90;;;;;;4961439;28;20046;-56
2022/03/31 01:24:10;;;;;;;0.85;0.40;;;4.00;99.90;;;;;;4977113;28;20082;-55
2022/03/31 01:26:40;;;;;;;8.45;0.70;;;4.00;99.90;;;;;;4966920;28;20077;-54
2022/03/31 01:29:08;;;;;;;1.05;0.52;;;4.00;99.90;;;;;;4977770;28;20050;-54
2022/03/31 01:31:37;;;;;;;0.70;0.57;;;4.10;99.90;;;;;;4978521;28;20074;-56
2022/03/31 01:34:07;;;;;;;2.75;0.70;;;4.00;99.90;;;;;;4976808;28;20050;-56
2022/03/31 01:36:35;;;;;;;5.15;0.47;;;4.00;99.90;;;;;;4976585;28;20552;-55
2022/03/31 01:39:03;;;;;;;4.68;0.93;;;4.00;99.90;;;;;;4978966;28;20716;-51
2022/03/31 01:41:30;;;;;;;1.25;0.60;;;4.00;99.90;;;;;;4979033;28;20089;-55
2022/03/31 01:43:56;;;;;;;1.27;0.63;;;3.90;99.90;;;;;;4976497;28;20580;-56
2022/03/31 01:46:23;;;;;;;5.18;0.55;;;3.90;99.90;;;;;;4976710;28;20050;-55
2022/03/31 01:48:52;;;;;;;6.00;0.80;;;3.80;99.90;;;;;;4974141;28;20092;-56
2022/03/31 01:51:19;;;;;;;1.23;0.70;;;3.80;99.90;;;;;;4977318;28;20073;-54
2022/03/31 01:53:47;;;;;;;2.38;0.60;;;3.80;99.90;;;;;;4979872;28;20047;-57
2022/03/31 01:56:14;;;;;;;3.72;0.68;;;3.80;99.90;;;;;;4963533;28;20081;-55
2022/03/31 01:58:40;;;;;;;2.00;0.80;;;3.80;99.90;;;;;;4977603;28;20813;-54
2022/03/31 02:01:07;;;;;;;3.60;0.70;;;3.90;99.90;;;;;;4978631;28;20058;-55
2022/03/31 02:03:34;;;;;;;3.13;0.90;;;3.80;99.90;;;;;;4977999;28;20113;-59
2022/03/31 02:06:01;;;;;;;1.00;0.90;;;3.80;99.90;;;;;;4978774;28;20141;-55
2022/03/31 02:08:28;;;;;;;7.30;1.05;;;3.90;99.90;;;;;;4964212;28;20066;-54
2022/03/31 02:10:54;;;;;;;2.65;0.80;;;3.70;99.90;;;;;;4976188;28;20051;-54
2022/03/31 02:13:21;;;;;;;3.03;1.00;;;3.70;99.90;;;;;;4980304;28;20514;-56
2022/03/31 02:15:48;;;;;;;1.35;0.50;;;3.80;99.90;;;;;;4965843;28;20546;-57
2022/03/31 02:18:15;;;;;;;3.50;0.80;;;3.80;99.90;;;;;;4977945;28;20084;-53
2022/03/31 02:20:42;;;;;;;2.65;0.93;;;3.70;99.90;;;;;;4976614;28;20055;-57
2022/03/31 02:23:08;;;;;;;3.88;1.00;;;3.70;99.90;;;;;;4977464;28;20043;-55
2022/03/31 02:25:35;;;;;;;4.22;1.00;;;3.70;99.90;;;;;;4978204;28;20520;-54
2022/03/31 02:28:02;;;;;;;4.32;1.45;;;3.70;99.90;;;;;;4976618;28;20047;-55
2022/03/31 02:30:29;;;;;;;3.30;1.10;;;3.70;99.90;;;;;;4973072;28;20561;-56
2022/03/31 02:32:56;;;;;;;1.02;0.88;;;3.70;99.90;;;;;;4976767;28;20051;-54
2022/03/31 02:35:23;;;;;;;4.20;1.10;;;3.70;99.90;;;;;;4972678;28;20094;-59
2022/03/31 02:37:50;;;;;;;2.28;0.82;;;3.70;99.90;;;;;;4976883;28;20143;-54
2022/03/31 02:40:16;;;;;;;5.38;1.38;;;3.60;99.90;;;;;;4977358;28;20137;-53
2022/03/31 02:42:43;;;;;;;10.25;1.10;;;3.70;99.90;;;;;;4979976;28;20101;-55
2022/03/31 02:45:10;;;;;;;6.22;1.20;;;3.70;99.90;;;;;;4986698;28;20050;-54
2022/03/31 02:47:37;;;;;;;3.55;1.10;;;3.60;99.90;;;;;;4980715;28;20137;-55
2022/03/31 02:50:04;;;;;;;2.65;0.95;;;3.60;99.90;;;;;;4985696;28;20069;-55
2022/03/31 02:55:24;;;;;;;1.83;1.00;;;3.60;99.90;;;;;;4977474;28;20086;-55
2022/03/31 02:55:24;;;;;;;9.25;1.13;;;3.60;99.90;;;;;;4979138;28;20078;-55
2022/03/31 02:57:52;;;;;;;1.52;1.05;;;3.70;99.90;;;;;;4987206;28;20129;-55
2022/03/31 03:00:19;;;;;;;1.92;1.05;;;3.50;99.90;;;;;;4978193;28;20073;-51
2022/03/31 03:02:46;;;;;;;2.90;0.88;;;3.60;99.90;;;;;;4977308;28;20053;-53
2022/03/31 03:05:14;;;;;;;1.25;1.05;;;3.60;99.90;;;;;;4963798;28;20050;-55
2022/03/31 03:07:47;;;;;;;2.75;1.15;;;3.60;99.90;;;;;;4985391;28;20054;-53
2022/03/31 03:10:14;;;;;;;4.88;1.50;;;3.50;99.90;;;;;;4981421;28;20238;-55
2022/03/31 03:12:44;;;;;;;5.20;3.33;;;3.40;99.90;;;;;;4974382;28;20131;-53
2022/03/31 03:15:11;;;;;;;2.88;1.60;;;3.40;99.90;;;;;;4964706;28;20172;-53
2022/03/31 03:17:41;;;;;;;2.17;1.17;;;3.40;99.90;;;;;;4972731;28;20081;-54
2022/03/31 03:20:13;;;;;;;3.40;1.35;;;3.50;99.90;;;;;;4979355;28;20050;-55
2022/03/31 03:22:44;;;;;;;5.40;1.73;;;3.50;99.90;;;;;;4974412;28;20077;-54
2022/03/31 03:25:11;;;;;;;3.63;1.45;;;3.50;99.90;;;;;;4980471;28;20145;-54
2022/03/31 03:27:38;;;;;;;1.85;1.38;;;3.40;99.90;;;;;;4962101;28;20081;-55
2022/03/31 03:30:06;;;;;;;3.13;1.52;;;3.40;99.90;;;;;;4981007;28;20137;-55
2022/03/31 03:32:34;;;;;;;4.05;1.52;;;3.30;99.90;;;;;;4983051;28;20050;-53
2022/03/31 03:35:01;;;;;;;2.97;1.58;;;3.20;99.90;;;;;;4979074;28;20508;-55
2022/03/31 03:37:27;;;;;;;3.63;1.60;;;3.20;99.90;;;;;;4981897;28;20129;-54
2022/03/31 03:39:54;;;;;;;4.85;1.52;;;3.20;99.90;;;;;;4981320;28;20714;-55
2022/03/31 03:42:21;;;;;;;4.53;1.65;;;3.20;99.90;;;;;;4978980;28;20117;-55
2022/03/31 03:44:48;;;;;;;5.57;1.67;;;3.30;99.90;;;;;;4978801;28;20051;-55
2022/03/31 03:47:14;;;;;;;4.32;1.70;;;3.30;99.90;;;;;;4983480;28;20046;-53
2022/03/31 03:49:41;;;;;;;1.75;1.17;;;3.20;99.90;;;;;;4979318;28;20466;-56
2022/03/31 03:52:08;;;;;;;4.05;1.60;;;3.20;99.90;;;;;;4981292;28;20130;-55
2022/03/31 03:54:35;;;;;;;2.58;1.75;;;3.20;99.90;;;;;;4979978;28;20081;-56
2022/03/31 03:57:02;;;;;;;2.25;1.30;;;3.10;99.90;;;;;;4993496;28;20125;-56
2022/03/31 03:59:29;;;;;;;4.90;1.20;;;3.10;99.90;;;;;;4981891;28;20474;-55
2022/03/31 04:01:55;;;;;;;3.92;1.23;;;3.20;99.90;;;;;;4981461;28;20303;-52
2022/03/31 04:04:22;;;;;;;1.83;1.20;;;3.20;99.90;;;;;;4986732;28;20050;-53
2022/03/31 04:06:49;;;;;;;4.88;1.40;;;3.10;99.90;;;;;;4977735;28;20617;-51
2022/03/31 04:09:16;;;;;;;2.92;1.30;;;3.20;99.90;;;;;;4976297;28;20042;-54
2022/03/31 04:11:43;;;;;;;5.22;1.58;;;3.00;99.90;;;;;;4979225;28;20596;-58
2022/03/31 04:14:10;;;;;;;4.30;2.25;;;3.00;99.90;;;;;;4979344;28;20150;-55
2022/03/31 04:16:36;;;;;;;2.92;1.30;;;3.00;99.90;;;;;;4978952;28;20370;-56
2022/03/31 04:19:09;;;;;;;2.15;1.10;;;2.90;99.90;;;;;;4968957;28;20089;-55
2022/03/31 04:21:36;;;;;;;8.77;1.20;;;2.90;99.90;;;;;;4978332;28;20078;-55
2022/03/31 04:24:04;;;;;;;3.60;1.20;;;2.90;99.90;;;;;;4978763;28;20416;-56
2022/03/31 04:26:31;;;;;;;4.85;1.13;;;2.90;99.90;;;;;;4975623;28;20085;-55
2022/03/31 04:28:58;;;;;;;4.93;0.90;;;2.90;99.90;;;;;;4979992;28;20130;-59
2022/03/31 04:31:26;;;;;;;4.45;1.20;;;2.90;99.90;;;;;;4978067;28;20133;-53
2022/03/31 04:33:53;;;;;;;3.88;0.90;;;2.80;99.90;;;;;;4981688;28;20105;-55
2022/03/31 04:36:20;;;;;;;3.28;1.00;;;2.80;99.90;;;;;;4979159;28;20129;-55
2022/03/31 04:38:47;;;;;;;2.05;0.88;;;2.90;99.90;;;;;;4975711;28;20113;-55
2022/03/31 04:41:14;;;;;;;3.47;1.10;;;2.90;99.90;;;;;;4965667;28;20077;-53
2022/03/31 04:43:40;;;;;;;8.52;1.55;;;2.80;99.90;;;;;;4980798;28;20074;-56
2022/03/31 04:46:07;;;;;;;6.75;1.20;;;2.70;99.90;;;;;;4983944;28;20078;-53
2022/03/31 04:48:35;;;;;;;3.03;1.10;;;2.70;99.90;;;;;;4967937;28;20057;-55
2022/03/31 04:51:02;;;;;;;2.10;0.98;;;2.60;99.90;;;;;;4984571;28;20050;-57
2022/03/31 04:53:29;;;;;;;3.97;1.33;;;2.60;99.90;;;;;;4977124;28;20418;-53
2022/03/31 04:55:56;;;;;;;4.68;1.10;;;2.50;99.90;;;;;;4973282;28;20074;-55
2022/03/31 04:58:24;;;;;;;3.42;1.10;;;2.60;99.90;;;;;;4962832;28;20051;-53
2022/03/31 05:00:52;;;;;;;3.00;1.05;;;2.50;99.90;;;;;;4977409;28;20086;-56
2022/03/31 05:03:18;;;;;;;3.83;1.30;;;2.50;99.90;;;;;;4978705;28;20055;-51
2022/03/31 05:05:45;;;;;;;8.00;1.38;;;2.60;99.90;;;;;;4971577;28;20046;-56
2022/03/31 05:08:12;;;;;;;4.47;1.15;;;2.50;99.90;;;;;;4977094;28;20078;-55
2022/03/31 05:10:40;;;;;;;4.43;1.25;;;2.50;99.90;;;;;;4973066;28;20046;-56
2022/03/31 05:13:06;;;;;;;2.38;1.25;;;2.50;99.90;;;;;;4960069;28;20042;-55
2022/03/31 05:15:33;;;;;;;5.15;1.88;;;2.50;99.90;;;;;;4973283;28;20570;-54
2022/03/31 05:18:00;;;;;;;7.03;2.22;;;2.60;99.90;;;;;;4956535;28;20050;-55
2022/03/31 05:20:27;;;;;;;4.47;3.00;;;2.60;99.90;;;;;;4983947;28;20092;-56
2022/03/31 05:22:54;;;;;;;5.38;3.40;;;2.50;99.90;;;;;;4978832;28;20046;-56
2022/03/31 05:25:21;;;;;;;4.57;3.42;;;2.50;99.90;;;;;;4983818;28;20121;-56
2022/03/31 05:27:48;;;;;;;9.75;3.97;;;2.50;99.90;;;;;;4979801;28;20117;-56
2022/03/31 05:30:17;;;;;;;8.27;4.70;;;2.40;99.90;;;;;;4972628;28;20125;-56
2022/03/31 05:32:43;;;;;;;9.80;3.97;;;2.40;99.90;;;;;;4977013;28;20145;-56
2022/03/31 05:35:11;;;;;;;7.78;4.38;;;2.40;99.90;;;;;;4972117;28;20420;-52
2022/03/31 05:37:38;;;;;;;4.90;3.50;;;2.40;99.90;;;;;;4975232;28;20108;-55
2022/03/31 05:40:05;;;;;;;7.07;4.68;;;2.40;99.90;;;;;;4974596;28;20086;-53
2022/03/31 05:42:32;;;;;;;9.35;4.25;;;2.40;99.90;;;;;;4973532;28;20129;-55
2022/03/31 05:45:00;;;;;;;16.67;4.40;;;2.40;99.90;;;;;;4978158;28;20557;-55
2022/03/31 05:47:26;;;;;;;6.28;4.25;;;2.30;99.90;;;;;;4972728;28;20133;-54
2022/03/31 05:49:53;;;;;;;3.92;3.05;;;2.30;99.90;;;;;;4979053;28;20073;-56
2022/03/31 05:52:21;;;;;;;9.02;2.72;;;2.30;99.90;;;;;;4981856;28;20497;-55
2022/03/31 05:54:48;;;;;;;5.95;3.03;;;2.30;99.90;;;;;;4967363;28;20204;-55
2022/03/31 05:57:15;;;;;;;9.00;3.03;;;2.30;99.90;;;;;;4976199;28;20109;-55
2022/03/31 05:59:42;;;;;;;4.50;3.17;;;2.30;99.90;;;;;;4978456;28;20082;-56
2022/03/31 06:02:09;;;;;;;13.68;4.15;;;2.40;99.90;;;;;;4978962;28;20557;-57
2022/03/31 06:04:56;;;;;;;6.35;3.03;;;2.30;99.90;;;;;;4975559;28;20145;-53
2022/03/31 06:07:23;;;;;;;8.02;2.90;;;2.20;99.90;;;;;;4965247;28;20070;-57
2022/03/31 06:09:50;;;;;;;6.95;3.10;;;2.20;99.90;;;;;;4975360;28;20046;-57
2022/03/31 06:12:17;;;;;;;4.93;2.55;;;2.20;99.90;;;;;;4976409;28;20082;-57
2022/03/31 06:14:44;;;;;;;5.63;2.60;;;2.30;99.90;;;;;;4955545;28;20094;-56
2022/03/31 06:17:12;;;;;;;6.63;2.90;;;2.30;99.90;;;;;;4957668;28;20130;-57
2022/03/31 06:19:39;;;;;;;6.53;2.42;;;2.30;99.90;;;;;;4936759;29;20094;-59
2022/03/31 06:22:06;;;;;;;7.72;2.33;;;2.30;99.90;;;;;;4945002;29;20047;-55
2022/03/31 06:24:33;;;;;;;7.10;3.35;;;2.30;99.90;;;;;;4945639;28;20134;-55
2022/03/31 06:27:00;;;;;;;8.90;2.42;;;2.40;99.90;;;;;;4945974;29;20082;-57
2022/03/31 06:29:27;;;;;;;6.00;2.40;;;2.40;99.90;;;;;;4940187;28;20905;-57
2022/03/31 06:31:54;;;;;;;8.98;2.53;;;2.40;99.90;;;;;;4943364;29;20089;-56
2022/03/31 06:34:22;;;;;;;6.82;2.20;;;2.40;99.90;;;;;;4943656;29;20043;-56
2022/03/31 06:36:48;;;;;;;5.10;1.98;;;2.40;99.90;;;;;;4944387;29;20087;-55
2022/03/31 06:39:16;;;;;;;6.25;2.72;;;2.50;99.90;;;;;;4946558;29;20078;-60
2022/03/31 06:41:42;;;;;;;11.32;2.75;;;2.60;99.90;;;;;;4939502;29;20083;-57
2022/03/31 06:44:12;;;;;;;5.93;2.60;;;2.70;99.90;;;;;;4944877;28;20067;-56
2022/03/31 06:46:40;;;;;;;6.57;2.60;;;2.60;99.90;;;;;;4944169;28;20070;-56
2022/03/31 06:49:07;;;;;;;4.85;2.45;;;2.60;99.90;;;;;;4939758;29;20052;-53
2022/03/31 06:51:34;;;;;;;6.38;1.90;;;2.60;99.90;;;;;;4946303;29;20109;-56
2022/03/31 06:54:09;;;;;;;6.45;2.56;;;2.70;99.90;;;;;;4881287;28;10001400;-57
2022/03/31 06:56:36;;;;;;;7.45;2.50;;;2.70;99.90;;;;;;4938918;28;20346;-58
2022/03/31 06:59:04;;;;;;;10.38;2.85;;;2.70;99.90;;;;;;4935689;29;20055;-57
2022/03/31 07:01:31;;;;;;;10.57;2.50;;;2.70;99.90;;;;;;4933658;28;20110;-54
2022/03/31 07:03:59;;;;;;;8.73;2.15;;;2.70;99.90;;;;;;4938060;28;20044;-55
2022/03/31 07:06:26;;;;;;;5.32;2.00;;;2.70;99.90;;;;;;4940522;28;20106;-58
2022/03/31 07:08:53;;;;;;;4.65;2.13;;;2.80;99.90;;;;;;4941559;29;20083;-56
2022/03/31 07:11:20;;;;;;;3.53;1.98;;;2.90;99.90;;;;;;4935521;28;20467;-56
2022/03/31 07:13:48;;;;;;;6.13;2.60;;;2.80;99.90;;;;;;4945569;28;20967;-56
2022/03/31 07:16:16;;;;;;;3.28;2.00;;;2.90;99.90;;;;;;4976449;28;20097;-56
2022/03/31 07:18:44;;;;;;;6.50;2.72;;;2.90;99.90;;;;;;4980495;28;20046;-57
2022/03/31 07:21:11;;;;;;;3.88;2.00;;;2.90;99.90;;;;;;4981446;28;20180;-54
2022/03/31 07:23:39;;;;;;;7.95;2.30;;;2.80;99.90;;;;;;4980101;28;20054;-57
2022/03/31 07:26:06;;;;;;;5.35;2.10;;;2.90;99.90;;;;;;4980806;28;20039;-54
2022/03/31 07:28:33;;;;;;;5.68;2.00;;;2.90;99.90;;;;;;4981151;28;20062;-58
2022/03/31 07:31:00;;;;;;;7.75;2.63;;;2.90;99.90;;;;;;4984965;28;20092;-55
2022/03/31 07:33:26;;;;;;;9.48;2.53;;;3.20;99.90;;;;;;4978028;28;20086;-55
2022/03/31 07:35:53;;;;;;;6.53;2.25;;;3.00;99.90;;;;;;4978441;28;20053;-57
2022/03/31 07:38:20;;;;;;;9.00;2.30;;;3.00;99.90;;;;;;4978301;28;20078;-54
2022/03/31 07:40:48;;;;;;;4.10;2.47;;;3.00;99.90;;;;;;4975510;28;20051;-55
2022/03/31 07:43:14;;;;;;;3.72;2.63;;;3.00;99.90;;;;;;4979647;28;20101;-54
2022/03/31 07:45:41;;;;;;;5.13;3.30;;;3.00;99.90;;;;;;4980553;28;20054;-57
2022/03/31 07:48:09;;;;;;;11.68;4.72;;;3.10;99.90;;;;;;4977593;28;20498;-56
2022/03/31 07:50:37;;;;;;;6.75;2.72;;;3.20;99.90;;;;;;4976921;28;20051;-58
2022/03/31 07:53:04;;;;;;;5.30;2.85;;;3.20;99.90;;;;;;4981302;28;20170;-57
2022/03/31 07:55:31;;;;;;;4.75;2.22;;;3.20;99.90;;;;;;4976660;28;20577;-57
2022/03/31 07:57:57;;;;;;;11.55;2.47;;;3.20;99.90;;;;;;4975945;28;20264;-56
2022/03/31 08:00:24;;;;;;;9.73;2.95;;;3.20;99.90;;;;;;4973623;28;20414;-57
2022/03/31 08:02:51;;;;;;;13.52;3.40;;;3.30;99.90;;;;;;4978557;28;20466;-56
2022/03/31 08:05:22;;;;;;;6.57;3.45;;;3.40;99.90;;;;;;4979553;28;20129;-53
2022/03/31 08:07:50;;;;;;;8.40;3.88;;;3.50;99.90;;;;;;4977543;28;20046;-58
2022/03/31 08:10:17;;;;;;;13.82;4.55;;;3.50;99.90;;;;;;4977312;28;20504;-55
2022/03/31 08:12:45;;;;;;;9.90;3.58;;;3.40;99.90;;;;;;4968503;28;20121;-58
2022/03/31 08:15:15;;;;;;;7.45;3.72;;;3.40;99.90;;;;;;4977849;28;20051;-55
2022/03/31 08:17:42;;;;;;;5.90;3.92;;;3.50;99.90;;;;;;4973288;28;20133;-62
2022/03/31 08:20:10;;;;;;;13.45;4.07;;;3.60;99.90;;;;;;4977433;28;20101;-57
2022/03/31 08:22:37;;;;;;;5.07;3.30;;;3.60;99.90;;;;;;4982305;28;20085;-53
2022/03/31 08:25:04;;;;;;;4.63;3.13;;;3.70;99.90;;;;;;4956333;28;20568;-55
2022/03/31 08:27:32;;;;;;;9.13;3.50;;;3.70;99.90;;;;;;4964130;28;20713;-61
2022/03/31 08:30:00;;;;;;;9.50;4.22;;;3.80;99.90;;;;;;4977389;28;20097;-60
2022/03/31 08:32:27;;;;;;;5.25;3.67;;;3.80;99.90;;;;;;4972670;28;20158;-56
2022/03/31 08:34:54;;;;;;;8.85;3.88;;;3.80;99.90;;;;;;4977365;28;20050;-56
2022/03/31 08:37:21;;;;;;;4.78;3.20;;;3.90;99.90;;;;;;4983630;28;20046;-57
2022/03/31 08:39:48;;;;;;;9.13;4.22;;;3.90;99.90;;;;;;4979803;28;20046;-59
2022/03/31 08:42:14;;;;;;;5.35;3.72;;;3.90;99.90;;;;;;4981055;28;20073;-56
2022/03/31 08:44:41;;;;;;;8.88;3.40;;;4.00;99.90;;;;;;4982336;28;20568;-58
2022/03/31 08:47:08;;;;;;;4.70;3.40;;;4.00;99.90;;;;;;4971594;28;20141;-56
2022/03/31 08:49:35;;;;;;;6.03;2.72;;;4.00;99.90;;;;;;4954421;28;20054;-56
2022/03/31 08:52:03;;;;;;;10.27;2.63;;;4.10;99.90;;;;;;4961754;28;20311;-57
2022/03/31 08:54:30;;;;;;;12.10;2.90;;;4.20;99.90;;;;;;4977142;28;20050;-53
2022/03/31 08:56:58;;;;;;;6.68;2.03;;;4.20;99.90;;;;;;4979853;28;20078;-57
2022/03/31 08:59:45;;;;;;;4.57;1.98;;;4.20;99.90;;;;;;4980036;28;20497;-57
2022/03/31 09:02:25;;;;;;;5.45;1.70;;;4.20;99.90;;;;;;4971525;28;20078;-57
2022/03/31 09:05:00;;;;;;;4.55;1.20;;;4.20;99.90;;;;;;4980301;28;20090;-58
2022/03/31 09:07:27;;;;;;;4.82;1.42;;;4.10;99.90;;;;;;4963450;28;20046;-56
2022/03/31 09:09:54;;;;;;;2.55;1.42;;;4.20;99.90;;;;;;4982307;28;20082;-55
2022/03/31 09:12:24;;;;;;;3.72;1.25;;;4.20;99.90;;;;;;4961561;28;20124;-57
2022/03/31 09:14:50;;;;;;;5.47;1.05;;;4.20;99.90;;;;;;4974381;28;20073;-56
2022/03/31 09:17:18;;;;;;;4.20;1.52;;;4.20;99.90;;;;;;4627939;28;10000190;-56
2022/03/31 09:19:45;;;;;;;3.80;1.00;;;4.30;99.90;;;;;;4972891;28;20494;-57
2022/03/31 09:22:12;;;;;;;3.47;0.80;;;4.40;99.90;;;;;;4961210;28;20070;-55
2022/03/31 09:24:39;;;;;;;3.95;1.25;;;4.50;99.90;;;;;;4969880;28;20145;-56
2022/03/31 09:27:06;;;;;;;3.67;0.70;;;4.70;99.90;;;;;;4974955;28;20109;-57
2022/03/31 09:29:33;;;;;;;2.60;0.80;;;4.80;99.90;;;;;;4977809;28;20042;-57
2022/03/31 09:32:11;;;;;;;3.53;0.85;;;4.80;99.90;;;;;;4978740;28;20184;-57
2022/03/31 09:34:45;;;;;;;4.32;0.88;;;4.70;99.90;;;;;;4977483;28;20197;-57
2022/03/31 09:37:12;;;;;;;2.67;1.05;;;4.70;99.90;;;;;;4972995;28;20502;-57
2022/03/31 09:39:40;;;;;;;10.93;0.90;;;4.70;99.90;;;;;;4980380;28;20054;-58
2022/03/31 09:42:11;;;;;;;3.20;1.02;;;4.70;99.90;;;;;;4956999;28;20580;-58
2022/03/31 09:44:38;;;;;;;6.00;1.20;;;4.70;99.90;;;;;;4979016;28;20296;-57
2022/03/31 09:47:05;;;;;;;4.32;1.13;;;4.90;99.90;;;;;;4958070;28;20071;-55
2022/03/31 09:49:32;;;;;;;2.78;0.82;;;4.80;99.90;;;;;;4978824;28;20050;-55
2022/03/31 09:52:00;;;;;;;4.28;1.30;;;4.90;99.90;;;;;;4979813;28;20054;-54
2022/03/31 09:54:29;;;;;;;6.45;1.20;;;4.80;99.90;;;;;;4984231;28;20276;-59
2022/03/31 09:56:57;;;;;;;6.05;1.05;;;5.00;99.90;;;;;;4982328;28;20442;-57
2022/03/31 09:59:30;;;;;;;8.25;1.45;;;5.00;99.90;;;;;;4950532;28;20053;-59
2022/03/31 10:01:57;;;;;;;25.58;2.53;;;4.90;99.90;;;;;;4985096;28;20051;-54
2022/03/31 10:04:24;;;;;;;7.63;1.40;;;4.70;99.90;;;;;;4986352;28;20441;-57
2022/03/31 10:06:54;;;;;;;16.27;1.85;;;4.20;99.90;;;;;;4985725;28;20050;-56
2022/03/31 10:09:22;;;;;;;9.80;1.98;;;4.10;99.90;;;;;;4970461;28;20320;-57
2022/03/31 10:12:19;;;;;;;6.95;1.50;;;4.00;99.90;;;;;;4978413;28;20077;-58
2022/03/31 10:15:31;;;;;;;6.65;1.60;;;4.10;99.90;;;;;;4970543;28;20699;-59
2022/03/31 10:17:58;;;;;;;4.28;1.08;;;4.20;99.90;;;;;;4913689;29;20785;-54
2022/03/31 10:20:24;;;;;;;3.97;1.17;;;4.30;99.90;;;;;;4946171;28;20043;-55
2022/03/31 10:25:45;;;;;;;10.30;2.17;;;4.40;99.90;;;;;;4987898;28;20054;-58
2022/03/31 10:28:21;;;;;;;6.85;1.55;;;4.50;99.90;;;;;;4970541;28;20050;-53
2022/03/31 10:30:53;;;;;;;15.88;1.52;;;4.50;99.90;;;;;;4987603;28;20046;-56
2022/03/31 10:33:42;;;;;;;4.03;1.25;;;4.70;99.90;;;;;;4971064;28;20050;-55
2022/03/31 10:36:12;;;;;;;9.00;1.85;;;4.80;99.90;;;;;;4986429;28;20050;-56
2022/03/31 10:38:56;;;;;;;17.23;2.15;;;5.00;99.90;;;;;;4985203;28;20051;-56
2022/03/31 10:41:38;;;;;;;7.10;1.58;;;5.20;99.40;;;;;;4977596;28;20058;-56
2022/03/31 10:44:11;;;;;;;11.27;1.55;;;5.30;99.30;;;;;;4982086;28;20138;-56
2022/03/31 10:46:39;;;;;;;10.93;3.50;;;5.30;98.10;;;;;;4987272;28;20071;-57
2022/03/31 10:49:13;;;;;;;8.90;1.55;;;5.40;99.80;;;;;;4981786;28;20042;-55
2022/03/31 10:51:43;;;;;;;;;;;5.50;99.90;;;;;;4982370;28;20073;-57
2022/03/31 10:54:22;;;;;;;9.38;1.95;;;5.60;98.70;;;;;;4986522;28;19972;-56
2022/03/31 10:56:49;;;;;;;5.40;1.75;;;5.70;99.90;;;;;;4983844;28;20652;-57
2022/03/31 10:59:17;;;;;;;7.03;2.22;;;5.80;99.60;;;;;;4974675;28;20050;-56
2022/03/31 11:01:46;;;;;;;8.82;2.30;;;5.80;99.60;;;;;;4982433;28;20054;-58
2022/03/31 11:04:13;;;;;;;5.75;2.10;;;5.70;98.90;;;;;;4979301;28;20412;-57
2022/03/31 11:06:47;;;;;;;6.65;1.60;;;5.80;99.50;;;;;;4966537;28;20140;-56
2022/03/31 11:09:27;;;;;;;7.13;1.23;;;5.90;99.00;;;;;;4978872;28;20418;-60
2022/03/31 11:11:56;;;;;;;11.25;1.63;;;5.90;96.30;;;;;;4975895;28;20524;-58
2022/03/31 11:14:23;;;;;;;7.32;1.52;;;5.90;97.30;;;;;;4964946;28;20050;-57
2022/03/31 11:16:50;;;;;;;7.03;1.30;;;6.00;95.70;;;;;;4980142;28;20473;-57
2022/03/31 11:19:19;;;;;;;13.68;1.77;;;6.10;95.30;;;;;;4983174;28;20046;-55
2022/03/31 11:21:47;;;;;;;10.45;2.08;;;6.20;96.50;;;;;;4965020;28;20042;-58
2022/03/31 11:24:14;;;;;;;7.78;1.30;;;6.20;93.10;;;;;;4975852;28;20054;-56
2022/03/31 11:26:44;;;;;;;8.10;1.30;;;6.30;93.90;;;;;;4966444;28;20070;-55
2022/03/31 11:29:14;;;;;;;9.23;2.00;;;6.30;92.20;;;;;;4981549;28;20078;-56
2022/03/31 11:31:48;;;;;;;5.18;1.42;;;6.40;90.70;;;;;;4979477;28;20042;-54
2022/03/31 11:34:23;;;;;;;7.05;1.55;;;6.40;83.80;;;;;;4968920;28;20050;-56
2022/03/31 11:36:51;;;;;;;5.13;1.20;;;6.40;92.10;;;;;;4977426;28;20084;-57
2022/03/31 11:39:19;;;;;;;7.32;1.17;;;6.60;91.40;;;;;;4966308;28;20129;-58
2022/03/31 11:41:45;;;;;;;15.10;1.90;;;6.70;91.80;;;;;;4979707;28;20082;-57
2022/03/31 11:44:19;;;;;;;7.60;1.73;;;6.80;90.30;;;;;;4981178;28;20043;-58
2022/03/31 11:46:47;;;;;;;8.77;1.13;;;6.80;90.40;;;;;;4979910;28;20138;-58
2022/03/31 11:49:23;;;;;;;6.20;1.98;;;6.80;93.00;;;;;;4979357;28;20046;-59
2022/03/31 11:51:58;;;;;;;6.72;1.17;;;6.80;88.80;;;;;;4963405;28;20501;-57
2022/03/31 11:54:25;;;;;;;10.05;1.25;;;6.90;87.60;;;;;;4974925;28;20101;-58
2022/03/31 11:57:06;;;;;;;4.68;1.38;;;6.90;90.70;;;;;;4946553;28;20133;-56
2022/03/31 11:59:34;;;;;;;6.60;1.58;;;6.90;85.60;;;;;;4978348;28;20112;-57
2022/03/31 12:02:00;;;;;;;8.73;1.67;;;6.90;91.70;;;;;;4978228;28;20051;-57
2022/03/31 12:04:29;;;;;;;6.07;1.95;;;6.90;90.50;;;;;;4966700;28;20101;-56
2022/03/31 12:06:58;;;;;;;13.57;1.58;;;6.80;90.40;;;;;;4978140;28;20042;-57
2022/03/31 12:09:27;;;;;;;4.05;1.52;;;6.80;86.80;;;;;;4968006;28;20092;-59
2022/03/31 12:11:55;;;;;;;17.10;1.70;;;6.80;85.30;;;;;;4978955;28;20520;-58
2022/03/31 12:14:22;;;;;;;3.40;1.25;;;6.90;86.50;;;;;;4977388;28;20109;-57
2022/03/31 12:16:50;;;;;;;13.82;1.38;;;7.00;80.70;;;;;;4962794;28;20079;-56
2022/03/31 12:19:18;;;;;;;9.45;1.48;;;7.10;78.00;;;;;;4966557;28;20077;-58
2022/03/31 12:21:48;;;;;;;10.15;1.70;;;7.20;84.70;;;;;;4978041;28;20050;-59
2022/03/31 12:24:15;;;;;;;7.88;1.67;;;7.30;77.80;;;;;;4969955;28;20065;-56
2022/03/31 12:26:54;;;;;;;3.63;1.20;;;7.30;86.30;;;;;;4978513;28;20078;-57
2022/03/31 12:29:22;;;;;;;11.50;1.52;;;7.40;76.50;;;;;;4973064;28;20465;-55
2022/03/31 12:32:02;;;;;;;1.92;0.93;;;7.40;78.40;;;;;;4977904;28;20046;-56
2022/03/31 12:34:36;;;;;;;11.07;1.83;;;7.30;73.30;;;;;;4973083;28;20056;-54
2022/03/31 12:37:03;;;;;;;4.00;1.35;;;7.50;78.80;;;;;;4978725;28;20096;-57
2022/03/31 12:39:38;;;;;;;3.28;0.95;;;7.40;71.50;;;;;;4973033;28;20046;-57
2022/03/31 12:42:07;;;;;;;2.95;1.15;;;7.40;78.20;;;;;;4968381;28;20145;-56
2022/03/31 12:44:38;;;;;;;6.55;1.27;;;7.50;67.10;;;;;;4979184;28;20077;-53
2022/03/31 12:47:05;;;;;;;4.95;1.08;;;7.60;65.30;;;;;;4988222;28;20568;-57
2022/03/31 12:49:34;;;;;;;6.53;1.50;;;7.70;80.70;;;;;;4980287;28;20053;-56
2022/03/31 12:52:03;;;;;;;4.65;0.95;;;7.70;74.60;;;;;;4980137;28;20097;-55
2022/03/31 12:54:35;;;;;;;10.73;1.83;;;7.70;70.70;;;;;;4971978;28;20566;-55
2022/03/31 12:57:17;;;;;;;9.65;1.17;;;7.60;64.60;;;;;;4981631;28;20078;-56
2022/03/31 12:59:55;;;;;;;3.95;1.40;;;7.50;72.20;;;;;;4979376;28;20042;-57
2022/03/31 13:02:22;;;;;;;5.63;1.02;;;7.60;71.80;;;;;;4981478;28;20078;-55
2022/03/31 13:04:49;;;;;;;10.02;1.40;;;7.60;69.50;;;;;;4978612;28;20130;-57